createdAt,value
2022-08-05T01:03:49.957Z,1.23
2022-08-05T01:08:39.190Z,1.30
2022-08-05T01:12:18.826Z,1.38
2022-08-05T01:16:26.683Z,1.30
2022-08-05T01:20:31.139Z,1.48
2022-08-05T01:24:33.170Z,1.40
2022-08-05T01:28:39.443Z,1.77
2022-08-05T01:32:43.351Z,2.45
2022-08-05T01:36:49.241Z,1.75
2022-08-05T01:40:51.854Z,1.65
2022-08-05T01:44:55.834Z,2.20
2022-08-05T01:48:58.803Z,1.63
2022-08-05T01:53:01.722Z,1.98
2022-08-05T01:58:10.898Z,1.60
2022-08-05T02:01:27.682Z,1.63
2022-08-05T02:05:31.529Z,1.27
2022-08-05T02:09:35.803Z,1.58
2022-08-05T02:13:56.015Z,1.83
2022-08-05T02:18:31.342Z,1.75
2022-08-05T02:22:28.218Z,1.75
2022-08-05T02:26:54.632Z,1.45
2022-08-05T02:31:01.653Z,2.17
2022-08-05T02:35:13.875Z,1.77
2022-08-05T02:39:17.205Z,2.47
2022-08-05T02:43:23.459Z,2.08
2022-08-05T02:47:25.820Z,2.67
2022-08-05T02:52:03.424Z,2.55
2022-08-05T02:56:06.287Z,2.53
2022-08-05T03:00:08.698Z,2.70
2022-08-05T03:04:14.287Z,2.78
2022-08-05T03:08:17.349Z,3.08
2022-08-05T03:12:31.695Z,2.63
2022-08-05T03:16:33.812Z,2.72
2022-08-05T03:20:37.375Z,2.50
2022-08-05T03:24:50.890Z,3.65
2022-08-05T03:28:53.546Z,2.47
2022-08-05T03:32:56.823Z,1.88
2022-08-05T03:36:58.222Z,2.13
2022-08-05T03:40:59.664Z,2.35
2022-08-05T03:45:22.362Z,1.75
2022-08-05T03:49:51.002Z,1.95
2022-08-05T03:55:53.870Z,1.85
2022-08-05T03:58:16.285Z,1.98
2022-08-05T04:02:38.843Z,1.80
2022-08-05T04:06:47.338Z,1.77
2022-08-05T04:10:50.140Z,1.23
2022-08-05T04:14:51.972Z,1.35
2022-08-05T04:18:54.806Z,1.98
2022-08-05T04:22:59.232Z,1.73
2022-08-05T04:27:00.620Z,1.52
2022-08-05T04:31:02.293Z,2.03
2022-08-05T04:35:17.327Z,1.95
2022-08-05T04:39:21.234Z,2.25
2022-08-05T04:43:23.188Z,2.25
2022-08-05T04:47:27.475Z,2.22
2022-08-05T04:51:33.692Z,2.17
2022-08-05T04:56:14.899Z,2.65
2022-08-05T04:59:58.957Z,2.00
2022-08-05T05:04:00.462Z,2.05
2022-08-05T05:08:03.466Z,1.98
2022-08-05T05:12:06.259Z,1.92
2022-08-05T05:16:08.334Z,2.58
2022-08-05T05:20:10.764Z,1.80
2022-08-05T05:24:13.090Z,1.75
2022-08-05T05:28:19.106Z,1.63
2022-08-05T05:32:22.159Z,1.73
2022-08-05T05:36:23.895Z,1.60
2022-08-05T05:40:32.011Z,1.35
2022-08-05T05:44:36.272Z,1.42
2022-08-05T05:48:38.873Z,1.30
2022-08-05T05:52:42.383Z,1.23
2022-08-05T05:56:48.770Z,0.50
2022-08-05T06:00:51.434Z,0.77
2022-08-05T06:04:52.880Z,1.30
2022-08-05T06:08:54.333Z,1.05
2022-08-05T06:12:55.787Z,1.33
2022-08-05T06:16:59.328Z,0.80
2022-08-05T06:21:04.476Z,0.80
2022-08-05T06:25:59.741Z,0.82
2022-08-05T06:29:49.240Z,1.23
2022-08-05T06:34:07.372Z,0.98
2022-08-05T06:38:11.650Z,1.52
2022-08-05T06:42:15.951Z,1.00
2022-08-05T06:46:17.347Z,1.13
2022-08-05T06:50:18.807Z,1.33
2022-08-05T06:54:20.951Z,0.80
2022-08-05T06:58:35.437Z,1.13
2022-08-05T07:02:41.966Z,1.33
2022-08-05T07:06:43.479Z,1.35
2022-08-05T07:10:53.263Z,0.82
2022-08-05T07:15:13.996Z,1.00
2022-08-05T07:23:57.023Z,1.20
2022-08-05T07:28:08.273Z,1.02
2022-08-05T07:32:12.965Z,1.35
2022-08-05T07:36:20.796Z,0.95
2022-08-05T07:40:31.914Z,0.77
2022-08-05T07:44:34.128Z,0.70
2022-08-05T07:49:02.477Z,0.68
2022-08-05T07:52:58.958Z,0.95
2022-08-05T07:57:17.679Z,1.13
2022-08-05T08:01:26.053Z,1.63
2022-08-05T08:05:31.360Z,1.10
2022-08-05T08:09:41.113Z,1.08
2022-08-05T08:13:49.534Z,1.35
2022-08-05T08:18:04.260Z,1.38
2022-08-05T08:22:09.994Z,1.30
2022-08-05T08:26:17.381Z,1.50
2022-08-05T08:30:37.696Z,1.30
2022-08-05T08:34:49.121Z,1.33
2022-08-05T08:38:53.229Z,1.33
2022-08-05T08:42:55.375Z,1.77
2022-08-05T08:46:58.603Z,1.52
2022-08-05T08:51:07.588Z,1.83
2022-08-05T08:56:01.890Z,1.25
2022-08-05T08:59:47.358Z,1.33
2022-08-05T09:03:55.650Z,1.98
2022-08-05T09:07:59.552Z,1.63
2022-08-05T09:12:19.890Z,1.30
2022-08-05T09:16:23.226Z,1.42
2022-08-05T09:20:36.340Z,1.10
2022-08-05T09:24:38.672Z,1.38
2022-08-05T09:28:40.788Z,1.48
2022-08-05T09:32:46.765Z,1.70
2022-08-05T09:36:55.186Z,1.50
2022-08-05T09:41:07.326Z,1.20
2022-08-05T09:46:04.847Z,1.75
2022-08-05T09:50:01.375Z,1.35
2022-08-05T09:53:59.025Z,1.48
2022-08-05T09:58:09.432Z,1.13
2022-08-05T10:02:12.644Z,1.58
2022-08-05T10:06:15.695Z,1.38
2022-08-05T10:10:18.709Z,1.25
2022-08-05T10:14:33.700Z,1.67
2022-08-05T10:18:35.723Z,1.55
2022-08-05T10:22:43.203Z,1.58
2022-08-05T10:26:54.810Z,1.70
2022-08-05T10:32:47.845Z,1.30
2022-08-05T10:35:17.943Z,1.80
2022-08-05T10:39:24.881Z,1.65
2022-08-05T10:43:43.100Z,3.42
2022-08-05T10:47:46.977Z,1.85
2022-08-05T10:52:10.343Z,1.70
2022-08-05T10:56:25.313Z,1.45
2022-08-05T11:00:29.881Z,1.40
2022-08-05T11:04:31.791Z,1.88
2022-08-05T11:08:39.353Z,1.50
2022-08-05T11:12:45.361Z,1.83
2022-08-05T11:17:59.135Z,1.73
2022-08-05T11:21:31.598Z,1.85
2022-08-05T11:26:08.847Z,1.92
2022-08-05T11:30:10.730Z,1.48
2022-08-05T11:34:14.875Z,1.08
2022-08-05T11:38:30.406Z,2.00
2022-08-05T11:42:40.724Z,1.73
2022-08-05T11:46:58.594Z,1.20
2022-08-05T11:51:03.982Z,1.60
2022-08-05T11:55:07.573Z,1.63
2022-08-05T11:59:15.499Z,1.73
2022-08-05T12:03:29.010Z,1.38
2022-08-05T12:08:08.180Z,1.50
2022-08-05T12:11:55.375Z,1.20
2022-08-05T12:15:57.845Z,1.25
2022-08-05T12:20:27.202Z,0.80
2022-08-05T12:24:21.443Z,1.30
2022-08-05T12:28:36.752Z,1.00
2022-08-05T12:32:45.899Z,1.15
2022-08-05T12:36:53.537Z,0.75
2022-08-05T12:40:56.097Z,0.90
2022-08-05T12:45:08.702Z,0.45
2022-08-05T12:49:14.867Z,1.10
2022-08-05T12:53:16.862Z,0.75
2022-08-05T12:57:19.625Z,0.65
2022-08-05T13:02:02.217Z,1.00
2022-08-05T13:05:47.784Z,0.65
2022-08-05T13:09:56.701Z,0.77
2022-08-05T13:14:06.784Z,0.67
2022-08-05T13:18:09.298Z,0.63
2022-08-05T13:22:12.213Z,0.47
2022-08-05T13:26:13.705Z,0.45
2022-08-05T13:30:34.543Z,0.50
2022-08-05T13:34:38.268Z,0.65
2022-08-05T13:38:43.219Z,0.43
2022-08-05T13:42:45.143Z,0.60
2022-08-05T13:47:08.378Z,0.30
2022-08-05T13:51:09.579Z,0.45
2022-08-05T13:55:11.116Z,0.30
2022-08-05T13:59:32.564Z,0.40
2022-08-05T14:03:33.997Z,0.22
2022-08-05T14:07:59.517Z,0.45
2022-08-05T14:12:03.919Z,0.30
2022-08-05T14:16:11.310Z,0.30
2022-08-05T14:20:18.483Z,0.35
2022-08-05T14:24:20.032Z,0.40
2022-08-05T14:28:26.028Z,0.30
2022-08-05T14:32:31.099Z,0.45
2022-08-05T14:36:32.749Z,0.30
2022-08-05T14:40:34.188Z,0.30
2022-08-05T14:44:35.826Z,0.20
2022-08-05T14:48:38.010Z,0.30
2022-08-05T14:52:52.572Z,0.15
2022-08-05T14:56:55.493Z,0.40
2022-08-05T15:00:59.070Z,0.20
2022-08-05T15:05:01.632Z,0.20
2022-08-05T15:09:14.794Z,0.10
2022-08-05T15:13:16.869Z,0.20
2022-08-05T15:17:46.289Z,0.25
2022-08-05T15:21:42.795Z,0.10
2022-08-05T15:25:52.603Z,0.20
2022-08-05T15:29:56.824Z,0.30
2022-08-05T15:34:18.316Z,0.32
2022-08-05T15:38:35.765Z,0.20
2022-08-05T15:42:57.717Z,0.30
2022-08-05T15:47:01.460Z,0.25
2022-08-05T15:51:05.709Z,0.30
2022-08-05T15:55:08.716Z,0.40
2022-08-05T15:59:21.819Z,0.40
2022-08-05T16:03:23.671Z,0.40
2022-08-05T16:07:25.100Z,0.30
2022-08-05T16:11:42.861Z,0.20
2022-08-05T16:15:45.070Z,0.20
2022-08-05T16:20:03.241Z,0.20
2022-08-05T16:24:12.856Z,0.20
2022-08-05T16:28:28.984Z,0.40
2022-08-05T16:32:31.190Z,0.30
2022-08-05T16:36:32.892Z,0.03
2022-08-05T16:40:35.363Z,0.10
2022-08-05T16:44:37.678Z,0.10
2022-08-05T16:48:39.317Z,0.10
2022-08-05T16:52:46.148Z,0.00
2022-08-05T16:56:47.758Z,0.10
2022-08-05T17:00:53.763Z,0.40
2022-08-05T17:04:56.438Z,0.00
2022-08-05T17:08:57.840Z,0.20
2022-08-05T17:13:00.389Z,0.15
2022-08-05T17:17:03.402Z,0.20
2022-08-05T17:21:06.089Z,0.10
2022-08-05T17:25:22.187Z,0.20
2022-08-05T17:29:33.313Z,0.10
2022-08-05T17:33:48.133Z,0.10
2022-08-05T17:37:52.350Z,0.10
2022-08-05T17:42:17.616Z,0.28
2022-08-05T17:46:23.630Z,0.10
2022-08-05T17:50:30.548Z,0.22
2022-08-05T17:54:33.933Z,0.20
2022-08-05T17:58:37.740Z,0.10
2022-08-05T18:02:39.427Z,0.20
2022-08-05T18:06:40.950Z,0.28
2022-08-05T18:10:47.126Z,0.32
2022-08-05T18:14:51.336Z,0.13
2022-08-05T18:18:52.764Z,0.10
2022-08-05T18:22:57.225Z,0.20
2022-08-05T18:26:59.044Z,0.20
2022-08-05T18:31:00.487Z,0.20
2022-08-05T18:35:02.423Z,0.25
2022-08-05T18:39:22.397Z,0.40
2022-08-05T18:43:28.071Z,0.30
2022-08-05T18:50:20.703Z,0.30
2022-08-05T18:54:45.982Z,0.20
2022-08-05T18:58:47.644Z,0.30
2022-08-05T19:02:52.637Z,0.30
2022-08-05T19:06:54.025Z,0.28
2022-08-05T19:10:56.014Z,0.25
2022-08-05T19:15:00.644Z,0.38
2022-08-05T19:19:04.002Z,0.40
2022-08-05T19:23:08.041Z,0.20
2022-08-05T19:27:11.405Z,0.70
2022-08-05T19:31:18.008Z,0.20
2022-08-05T19:35:21.913Z,0.40
2022-08-05T19:39:23.445Z,0.75
2022-08-05T19:44:05.989Z,0.65
2022-08-05T19:47:51.043Z,0.35
2022-08-05T19:52:09.040Z,0.55
2022-08-05T19:56:32.723Z,0.43
2022-08-05T20:00:36.169Z,0.40
2022-08-05T20:04:37.867Z,0.50
2022-08-05T20:08:47.522Z,0.57
2022-08-05T20:12:50.429Z,0.73
2022-08-05T20:16:51.818Z,0.60
2022-08-05T20:20:55.183Z,0.80
2022-08-05T20:24:57.203Z,0.50
2022-08-05T20:29:00.637Z,0.20
2022-08-05T20:33:02.970Z,0.15
2022-08-05T20:37:04.429Z,0.20
2022-08-05T20:41:24.153Z,0.20
2022-08-05T20:45:56.548Z,0.20
2022-08-05T20:49:51.313Z,0.30
2022-08-05T20:53:56.168Z,0.10
2022-08-05T20:57:58.632Z,0.13
2022-08-05T21:02:00.142Z,0.30
2022-08-05T21:06:01.767Z,0.45
2022-08-05T21:10:04.137Z,0.20
2022-08-05T21:14:06.258Z,0.20
2022-08-05T21:18:08.496Z,0.40
2022-08-05T21:22:12.614Z,0.43
2022-08-05T21:26:15.783Z,0.30
2022-08-05T21:30:17.722Z,0.10
2022-08-05T21:34:20.336Z,0.32
2022-08-05T21:38:23.717Z,0.30
2022-08-05T21:42:41.179Z,0.20
2022-08-05T21:46:46.574Z,0.30
2022-08-05T21:50:53.121Z,0.28
2022-08-05T21:54:56.942Z,0.15
2022-08-05T21:58:58.374Z,0.15
2022-08-05T22:03:00.373Z,0.35
2022-08-05T22:07:01.742Z,0.38
2022-08-05T22:11:03.125Z,0.08
2022-08-05T22:15:16.360Z,0.20
2022-08-05T22:20:01.522Z,0.10
2022-08-05T22:24:01.835Z,0.10
2022-08-05T22:28:11.166Z,0.10
2022-08-05T22:32:18.601Z,0.40
2022-08-05T22:36:23.803Z,0.15
2022-08-05T22:40:25.335Z,0.22
2022-08-05T22:44:26.703Z,0.10
2022-08-05T22:48:30.222Z,0.10
2022-08-05T22:52:34.509Z,0.10
2022-08-05T22:56:36.065Z,0.10
2022-08-05T23:00:41.565Z,0.20
2022-08-05T23:04:42.942Z,0.20
2022-08-05T23:08:52.865Z,0.20
2022-08-05T23:12:55.603Z,0.13
2022-08-05T23:17:15.756Z,0.10
2022-08-05T23:21:20.166Z,0.20
2022-08-05T23:25:53.250Z,0.10
2022-08-05T23:29:43.711Z,0.13
2022-08-05T23:34:04.885Z,0.30
2022-08-05T23:42:24.455Z,0.20
2022-08-05T23:46:30.224Z,0.32
2022-08-05T23:50:32.188Z,0.30
2022-08-05T23:54:38.337Z,0.10
2022-08-05T23:58:40.240Z,0.10
